createdAt,value
2018-05-17T00:01:51.893Z,23.37
2018-05-17T00:04:19.381Z,24.37
2018-05-17T00:06:46.884Z,26.67
2018-05-17T00:09:14.397Z,32.30
2018-05-17T00:11:41.916Z,31.53
2018-05-17T00:14:09.445Z,37.20
2018-05-17T00:16:36.969Z,36.40
2018-05-17T00:19:04.456Z,36.67
2018-05-17T00:21:31.972Z,42.40
2018-05-17T00:23:59.488Z,40.33
2018-05-17T00:26:27.029Z,52.80
2018-05-17T00:28:54.540Z,53.33
2018-05-17T00:31:22.036Z,50.77
2018-05-17T00:33:49.557Z,49.40
2018-05-17T00:36:17.057Z,57.37
2018-05-17T00:38:44.581Z,49.43
2018-05-17T00:41:12.135Z,53.13
2018-05-17T00:43:39.632Z,50.63
2018-05-17T00:46:07.124Z,59.53
2018-05-17T00:48:34.657Z,46.57
2018-05-17T00:51:02.173Z,41.60
2018-05-17T00:53:31.720Z,44.93
2018-05-17T00:55:59.221Z,51.60
2018-05-17T00:58:26.720Z,51.97
2018-05-17T01:00:54.224Z,55.47
2018-05-17T01:03:22.105Z,50.50
2018-05-17T01:05:49.616Z,52.03
2018-05-17T01:08:17.105Z,62.10
2018-05-17T01:10:44.836Z,51.73
2018-05-17T01:13:12.328Z,48.33
2018-05-17T01:15:39.821Z,66.33
2018-05-17T01:18:07.349Z,57.27
2018-05-17T01:20:34.837Z,44.57
2018-05-17T01:23:02.336Z,51.33
2018-05-17T01:28:02.566Z,56.23
2018-05-17T01:30:30.519Z,52.80
2018-05-17T01:32:58.035Z,53.37
2018-05-17T01:35:25.529Z,51.40
2018-05-17T01:38:04.761Z,52.73
2018-05-17T01:40:32.249Z,44.83
2018-05-17T01:42:59.743Z,46.70
2018-05-17T01:45:27.257Z,46.60
2018-05-17T01:47:54.771Z,60.90
2018-05-17T01:50:22.285Z,46.27
2018-05-17T01:52:49.802Z,49.47
2018-05-17T01:55:17.304Z,42.80
2018-05-17T01:57:44.799Z,40.37
2018-05-17T02:00:12.547Z,46.97
2018-05-17T02:02:40.055Z,39.10
2018-05-17T02:05:07.541Z,56.53
2018-05-17T02:07:35.089Z,48.50
2018-05-17T02:10:02.589Z,62.43
2018-05-17T02:12:30.080Z,47.77
2018-05-17T02:14:57.800Z,54.73
2018-05-17T02:17:25.293Z,49.23
2018-05-17T02:19:52.842Z,49.70
2018-05-17T02:22:20.765Z,55.13
2018-05-17T02:24:48.252Z,47.57
2018-05-17T02:27:15.835Z,41.30
2018-05-17T02:29:43.522Z,55.10
2018-05-17T02:32:11.021Z,50.00
2018-05-17T02:34:38.526Z,35.63
2018-05-17T02:37:06.078Z,43.20
2018-05-17T02:39:33.573Z,38.60
2018-05-17T02:42:01.069Z,37.83
2018-05-17T02:44:28.759Z,30.63
2018-05-17T02:46:56.269Z,43.13
2018-05-17T02:49:23.765Z,39.83
2018-05-17T02:51:51.328Z,35.90
2018-05-17T02:54:18.828Z,35.57
2018-05-17T02:56:46.329Z,43.70
2018-05-17T02:59:13.840Z,42.57
2018-05-17T03:01:41.345Z,38.63
2018-05-17T03:04:09.131Z,42.50
2018-05-17T03:06:36.639Z,39.20
2018-05-17T03:09:06.924Z,31.07
2018-05-17T03:11:34.458Z,34.43
2018-05-17T03:14:01.954Z,40.40
2018-05-17T03:16:29.480Z,32.23
2018-05-17T03:18:57.027Z,30.63
2018-05-17T03:21:24.521Z,32.33
2018-05-17T03:23:52.041Z,35.23
2018-05-17T03:26:19.537Z,28.07
2018-05-17T03:28:47.076Z,21.13
2018-05-17T03:31:14.584Z,37.67
2018-05-17T03:33:42.092Z,43.93
2018-05-17T03:36:09.605Z,31.33
2018-05-17T03:38:37.105Z,26.77
2018-05-17T03:41:04.748Z,21.00
2018-05-17T03:43:32.257Z,26.70
2018-05-17T03:45:59.745Z,32.57
2018-05-17T03:48:27.268Z,41.27
2018-05-17T03:50:54.772Z,30.33
2018-05-17T03:53:22.321Z,28.17
2018-05-17T03:55:49.808Z,26.97
2018-05-17T03:58:17.300Z,35.90
2018-05-17T04:00:56.481Z,27.37
2018-05-17T04:03:35.924Z,24.00
2018-05-17T04:06:15.324Z,37.97
2018-05-17T04:08:42.857Z,23.63
2018-05-17T04:11:10.357Z,27.17
2018-05-17T04:13:37.857Z,28.10
2018-05-17T04:16:05.396Z,23.63
2018-05-17T04:18:32.904Z,26.90
2018-05-17T04:21:00.432Z,26.40
2018-05-17T04:23:27.921Z,31.80
2018-05-17T04:25:55.413Z,26.27
2018-05-17T04:28:22.945Z,33.17
2018-05-17T04:30:50.437Z,23.47
2018-05-17T04:33:18.108Z,38.50
2018-05-17T04:35:45.601Z,32.53
2018-05-17T04:38:13.094Z,46.10
2018-05-17T04:40:40.605Z,32.07
2018-05-17T04:43:08.106Z,29.07
2018-05-17T04:45:35.832Z,28.23
2018-05-17T04:48:03.328Z,33.40
2018-05-17T04:50:30.829Z,36.40
2018-05-17T04:52:58.345Z,47.00
2018-05-17T04:55:25.845Z,30.23
2018-05-17T04:57:53.437Z,41.67
2018-05-17T05:00:20.952Z,32.57
2018-05-17T05:02:48.455Z,41.30
2018-05-17T05:05:15.985Z,36.13
2018-05-17T05:07:43.488Z,39.03
2018-05-17T05:10:11.009Z,46.90
2018-05-17T05:12:38.546Z,54.30
2018-05-17T05:15:06.061Z,52.77
2018-05-17T05:17:33.577Z,47.03
2018-05-17T05:20:01.072Z,52.20
2018-05-17T05:22:28.789Z,71.57
2018-05-17T05:24:56.281Z,63.53
2018-05-17T05:27:23.773Z,55.17
2018-05-17T05:29:51.286Z,50.50
2018-05-17T05:32:18.801Z,43.83
2018-05-17T05:34:46.445Z,50.67
2018-05-17T05:37:13.961Z,44.73
2018-05-17T05:39:41.453Z,52.50
2018-05-17T05:42:08.993Z,59.27
2018-05-17T05:44:36.493Z,46.47
2018-05-17T05:47:04.105Z,40.43
2018-05-17T05:49:31.675Z,40.20
2018-05-17T05:51:59.129Z,50.90
2018-05-17T05:54:26.699Z,54.73
2018-05-17T05:56:54.185Z,39.80
2018-05-17T05:59:21.721Z,59.10
2018-05-17T06:01:49.209Z,34.30
2018-05-17T06:04:16.720Z,38.93
2018-05-17T06:06:44.256Z,41.07
2018-05-17T06:09:11.745Z,38.93
2018-05-17T06:11:39.517Z,44.60
2018-05-17T06:14:07.064Z,30.10
2018-05-17T06:16:34.565Z,43.90
2018-05-17T06:19:02.078Z,39.77
2018-05-17T06:21:29.605Z,39.17
2018-05-17T06:23:57.153Z,29.47
2018-05-17T06:26:24.662Z,40.53
2018-05-17T06:28:52.161Z,37.70
2018-05-17T06:31:19.686Z,42.83
2018-05-17T06:33:47.177Z,41.07
2018-05-17T06:36:14.840Z,26.93
2018-05-17T06:38:42.336Z,60.30
2018-05-17T06:41:09.829Z,51.33
2018-05-17T06:43:37.344Z,36.33
2018-05-17T06:46:04.936Z,33.47
2018-05-17T06:48:32.513Z,33.43
2018-05-17T06:51:00.009Z,35.33
2018-05-17T06:53:27.521Z,29.93
2018-05-17T06:55:55.039Z,33.10
2018-05-17T06:58:22.545Z,26.00
2018-05-17T07:00:50.251Z,38.53
2018-05-17T07:03:17.745Z,42.67
2018-05-17T07:05:45.279Z,37.90
2018-05-17T07:08:12.797Z,48.00
2018-05-17T07:10:40.289Z,30.07
2018-05-17T07:13:08.017Z,38.33
2018-05-17T07:15:35.530Z,33.70
2018-05-17T07:18:03.127Z,31.70
2018-05-17T07:20:30.566Z,49.80
2018-05-17T07:22:58.068Z,31.23
2018-05-17T07:25:25.651Z,29.30
2018-05-17T07:27:53.152Z,27.87
2018-05-17T07:30:20.654Z,30.73
2018-05-17T07:32:48.177Z,32.03
2018-05-17T07:35:15.664Z,30.53
2018-05-17T07:37:43.329Z,35.00
2018-05-17T07:40:10.831Z,36.53
2018-05-17T07:42:38.321Z,37.77
2018-05-17T07:45:05.835Z,33.40
2018-05-17T07:47:34.549Z,41.93
2018-05-17T07:50:02.070Z,35.93
2018-05-17T07:52:29.569Z,29.97
2018-05-17T07:54:57.057Z,29.27
2018-05-17T07:57:24.584Z,34.53
2018-05-17T07:59:52.091Z,29.83
2018-05-17T08:02:19.833Z,34.03
2018-05-17T08:04:47.329Z,24.63
2018-05-17T08:07:14.825Z,24.37
2018-05-17T08:09:42.340Z,32.07
2018-05-17T08:12:09.833Z,38.77
2018-05-17T08:14:37.381Z,36.73
2018-05-17T08:17:04.895Z,21.17
2018-05-17T08:19:32.384Z,24.40
2018-05-17T08:21:59.896Z,32.73
2018-05-17T08:24:27.418Z,25.17
2018-05-17T08:26:55.177Z,33.23
2018-05-17T08:29:22.685Z,23.47
2018-05-17T08:31:50.193Z,33.10
2018-05-17T08:34:17.730Z,26.83
2018-05-17T08:36:45.241Z,24.20
2018-05-17T08:39:12.783Z,24.60
2018-05-17T08:41:40.319Z,32.43
2018-05-17T08:44:07.809Z,22.63
2018-05-17T08:46:35.325Z,24.43
2018-05-17T08:49:02.824Z,36.50
2018-05-17T08:51:30.488Z,29.10
2018-05-17T08:53:58.066Z,46.50
2018-05-17T08:56:25.605Z,37.90
2018-05-17T08:58:53.148Z,27.50
2018-05-17T09:01:20.644Z,29.93
2018-05-17T09:03:48.340Z,42.67
2018-05-17T09:06:15.867Z,23.87
2018-05-17T09:08:43.369Z,21.90
2018-05-17T09:11:10.881Z,30.27
2018-05-17T09:13:38.407Z,29.90
2018-05-17T09:16:06.049Z,31.70
2018-05-17T09:18:33.556Z,31.10
2018-05-17T09:21:01.048Z,29.47
2018-05-17T09:23:28.561Z,26.03
2018-05-17T09:25:56.046Z,22.13
2018-05-17T09:28:23.588Z,43.23
2018-05-17T09:30:51.089Z,28.80
2018-05-17T09:33:18.588Z,27.67
2018-05-17T09:35:46.222Z,28.67
2018-05-17T09:38:13.626Z,41.60
2018-05-17T09:40:41.310Z,27.57
2018-05-17T09:43:08.809Z,38.00
2018-05-17T09:45:36.297Z,35.30
2018-05-17T09:48:03.842Z,31.03
2018-05-17T09:50:31.333Z,28.80
2018-05-17T09:52:59.177Z,29.20
2018-05-17T09:55:26.677Z,28.73
2018-05-17T09:57:54.169Z,35.47
2018-05-17T10:00:22.492Z,37.40
2018-05-17T10:02:49.989Z,35.70
2018-05-17T10:05:17.871Z,46.17
2018-05-17T10:07:45.361Z,39.23
2018-05-17T10:10:12.861Z,43.27
2018-05-17T10:12:40.401Z,39.97
2018-05-17T10:15:07.892Z,36.80
2018-05-17T10:17:35.420Z,41.87
2018-05-17T10:20:02.927Z,42.83
2018-05-17T10:22:30.417Z,35.13
2018-05-17T10:24:57.947Z,52.00
2018-05-17T10:27:25.440Z,44.23
2018-05-17T10:29:53.166Z,32.87
2018-05-17T10:32:20.656Z,39.10
2018-05-17T10:34:48.173Z,34.43
2018-05-17T10:37:15.681Z,36.10
2018-05-17T10:39:43.178Z,41.43
2018-05-17T10:42:10.933Z,37.53
2018-05-17T10:44:38.349Z,42.10
2018-05-17T10:47:05.845Z,32.53
2018-05-17T10:49:33.357Z,34.40
2018-05-17T10:52:00.886Z,34.53
2018-05-17T10:54:28.516Z,38.53
2018-05-17T10:56:55.945Z,44.47
2018-05-17T10:59:23.446Z,46.27
2018-05-17T11:01:50.961Z,44.13
2018-05-17T11:04:18.461Z,43.37
2018-05-17T11:06:46.257Z,40.17
2018-05-17T11:09:13.825Z,61.67
2018-05-17T11:11:41.333Z,46.60
2018-05-17T11:14:08.867Z,42.90
2018-05-17T11:16:36.362Z,45.17
2018-05-17T11:19:03.907Z,44.70
2018-05-17T11:21:31.406Z,56.53
2018-05-17T11:23:58.896Z,51.93
2018-05-17T11:26:26.409Z,46.03
2018-05-17T11:28:53.905Z,51.70
2018-05-17T11:31:21.441Z,43.83
2018-05-17T11:33:48.943Z,44.10
2018-05-17T11:36:16.453Z,46.33
2018-05-17T11:38:43.978Z,41.27
2018-05-17T11:41:11.477Z,38.80
2018-05-17T11:43:39.404Z,49.93
2018-05-17T11:46:06.896Z,42.13
2018-05-17T11:48:34.392Z,42.40
2018-05-17T11:51:01.909Z,38.13
2018-05-17T11:53:29.400Z,38.77
2018-05-17T11:55:56.929Z,44.23
2018-05-17T11:58:24.461Z,47.73
2018-05-17T12:00:51.953Z,51.90
2018-05-17T12:03:19.479Z,55.63
2018-05-17T12:05:46.994Z,49.43
2018-05-17T12:08:14.716Z,46.87
2018-05-17T12:10:42.232Z,50.07
2018-05-17T12:13:09.734Z,45.50
2018-05-17T12:15:37.284Z,45.00
2018-05-17T12:18:04.785Z,56.13
2018-05-17T12:20:32.309Z,49.77
2018-05-17T12:23:00.270Z,43.87
2018-05-17T12:25:27.781Z,38.67
2018-05-17T12:27:55.327Z,56.57
2018-05-17T12:30:22.824Z,35.53
2018-05-17T12:32:50.660Z,41.73
2018-05-17T12:35:18.164Z,38.40
2018-05-17T12:37:45.656Z,48.47
2018-05-17T12:40:13.338Z,46.03
2018-05-17T12:42:40.940Z,50.70
2018-05-17T12:45:08.505Z,48.70
2018-05-17T12:47:36.034Z,45.70
2018-05-17T12:50:03.571Z,44.97
2018-05-17T12:52:31.100Z,48.00
2018-05-17T12:54:58.595Z,42.90
2018-05-17T12:57:26.125Z,37.77
2018-05-17T12:59:53.616Z,47.63
2018-05-17T13:02:21.108Z,50.13
2018-05-17T13:04:48.641Z,40.70
2018-05-17T13:07:16.153Z,45.63
2018-05-17T13:09:43.921Z,38.37
2018-05-17T13:12:11.421Z,36.73
2018-05-17T13:14:38.914Z,42.17
2018-05-17T13:17:06.443Z,28.07
2018-05-17T13:19:33.937Z,39.10
2018-05-17T13:22:01.493Z,32.17
2018-05-17T13:24:29.020Z,34.40
2018-05-17T13:26:56.596Z,31.30
2018-05-17T13:29:24.133Z,47.07
2018-05-17T13:31:51.924Z,20.03
2018-05-17T13:34:19.464Z,33.67
2018-05-17T13:36:46.969Z,37.53
2018-05-17T13:39:14.457Z,40.07
2018-05-17T13:41:41.982Z,33.53
2018-05-17T13:44:09.490Z,30.57
2018-05-17T13:46:37.197Z,29.03
2018-05-17T13:49:04.878Z,33.17
2018-05-17T13:51:32.301Z,29.50
2018-05-17T13:53:59.817Z,35.13
2018-05-17T13:56:27.325Z,27.83
2018-05-17T13:58:54.856Z,34.80
2018-05-17T14:01:22.381Z,27.77
2018-05-17T14:03:49.875Z,31.93
2018-05-17T14:06:17.417Z,27.57
2018-05-17T14:08:44.917Z,27.90
2018-05-17T14:11:12.609Z,27.87
2018-05-17T14:13:40.116Z,26.97
2018-05-17T14:16:07.671Z,30.87
2018-05-17T14:18:35.185Z,32.50
2018-05-17T14:21:02.694Z,32.50
2018-05-17T14:23:30.377Z,30.10
2018-05-17T14:25:57.865Z,23.43
2018-05-17T14:28:25.378Z,31.70
2018-05-17T14:30:52.901Z,19.60
2018-05-17T14:33:20.396Z,29.17
2018-05-17T14:35:48.333Z,21.27
2018-05-17T14:38:15.846Z,18.37
2018-05-17T14:40:43.333Z,28.10
2018-05-17T14:43:10.854Z,21.33
2018-05-17T14:45:38.343Z,16.53
2018-05-17T14:48:06.296Z,22.93
2018-05-17T14:50:33.885Z,25.90
2018-05-17T14:53:01.402Z,12.93
2018-05-17T14:55:29.824Z,25.37
2018-05-17T14:57:57.305Z,25.97
2018-05-17T15:00:24.902Z,23.43
2018-05-17T15:02:52.415Z,16.03
2018-05-17T15:05:19.930Z,18.03
2018-05-17T15:07:47.497Z,18.00
2018-05-17T15:10:14.990Z,20.50
2018-05-17T15:12:42.847Z,17.57
2018-05-17T15:15:10.341Z,21.97
2018-05-17T15:17:37.837Z,24.00
2018-05-17T15:20:05.345Z,23.97
2018-05-17T15:22:32.837Z,17.70
2018-05-17T15:25:00.365Z,32.03
2018-05-17T15:27:27.971Z,25.53
2018-05-17T15:29:55.736Z,26.37
2018-05-17T15:32:23.278Z,24.43
2018-05-17T15:34:50.777Z,22.00
2018-05-17T15:37:18.550Z,24.73
2018-05-17T15:39:46.054Z,28.50
2018-05-17T15:42:13.616Z,19.37
2018-05-17T15:44:41.132Z,23.97
2018-05-17T15:47:08.637Z,22.67
2018-05-17T15:49:36.169Z,18.73
2018-05-17T15:52:03.686Z,19.23
2018-05-17T15:54:31.205Z,28.50
2018-05-17T15:56:58.750Z,12.70
2018-05-17T15:59:26.283Z,11.97
2018-05-17T16:01:53.973Z,18.80
2018-05-17T16:04:21.457Z,21.43
2018-05-17T16:06:48.945Z,18.30
2018-05-17T16:09:16.477Z,20.07
2018-05-17T16:11:43.974Z,16.00
2018-05-17T16:14:11.521Z,15.83
2018-05-17T16:16:39.015Z,17.73
2018-05-17T16:19:06.501Z,21.73
2018-05-17T16:21:34.007Z,8.80
2018-05-17T16:24:01.520Z,23.80
2018-05-17T16:26:29.397Z,27.17
2018-05-17T16:28:56.880Z,20.37
2018-05-17T16:31:24.361Z,15.20
2018-05-17T16:33:51.888Z,11.30
2018-05-17T16:36:19.377Z,26.87
2018-05-17T16:38:47.145Z,16.67
2018-05-17T16:41:14.633Z,21.07
2018-05-17T16:43:42.128Z,17.07
2018-05-17T16:46:09.638Z,19.83
2018-05-17T16:48:37.244Z,18.67
2018-05-17T16:51:05.046Z,12.03
2018-05-17T16:53:32.536Z,22.80
2018-05-17T16:56:00.041Z,15.00
2018-05-17T16:58:27.552Z,23.63
2018-05-17T17:00:55.044Z,18.30
2018-05-17T17:03:22.577Z,19.17
2018-05-17T17:05:50.065Z,29.23
2018-05-17T17:08:17.553Z,14.07
2018-05-17T17:10:45.077Z,17.83
2018-05-17T17:13:12.572Z,21.83
2018-05-17T17:15:40.457Z,16.80
2018-05-17T17:18:07.948Z,21.10
2018-05-17T17:20:35.438Z,27.93
2018-05-17T17:23:02.966Z,16.97
2018-05-17T17:25:30.453Z,19.93
2018-05-17T17:27:58.129Z,18.87
2018-05-17T17:30:25.618Z,12.93
2018-05-17T17:32:53.121Z,14.87
2018-05-17T17:35:20.649Z,11.50
2018-05-17T17:37:48.146Z,13.07
2018-05-17T17:40:15.713Z,22.90
2018-05-17T17:42:43.205Z,17.83
2018-05-17T17:45:10.707Z,16.80
2018-05-17T17:47:38.236Z,15.30
2018-05-17T17:50:05.727Z,21.70
2018-05-17T17:52:33.489Z,14.80
2018-05-17T17:55:00.980Z,24.40
2018-05-17T17:57:28.486Z,24.90
2018-05-17T17:59:56.001Z,14.80
2018-05-17T18:02:23.508Z,12.43
2018-05-17T18:04:51.278Z,18.57
2018-05-17T18:07:18.765Z,16.37
2018-05-17T18:09:46.275Z,13.30
2018-05-17T18:12:13.801Z,19.60
2018-05-17T18:14:41.329Z,19.33
2018-05-17T18:17:09.027Z,22.37
2018-05-17T18:19:36.517Z,19.47
2018-05-17T18:22:04.027Z,11.10
2018-05-17T18:24:31.565Z,18.67
2018-05-17T18:26:59.066Z,19.10
2018-05-17T18:29:26.605Z,21.13
2018-05-17T18:31:54.440Z,18.23
2018-05-17T18:34:22.246Z,17.40
2018-05-17T18:36:49.832Z,18.43
2018-05-17T18:39:17.417Z,11.17
2018-05-17T18:41:45.260Z,19.03
2018-05-17T18:44:12.830Z,19.27
2018-05-17T18:46:40.321Z,14.67
2018-05-17T18:49:07.847Z,18.80
2018-05-17T18:51:35.387Z,15.00
2018-05-17T18:54:03.511Z,14.77
2018-05-17T18:56:31.427Z,22.70
2018-05-17T18:58:59.409Z,15.50
2018-05-17T19:01:27.499Z,23.53
2018-05-17T19:03:55.534Z,16.20
2018-05-17T19:06:23.857Z,19.07
2018-05-17T19:08:52.367Z,24.40
2018-05-17T19:11:20.756Z,26.60
2018-05-17T19:13:48.947Z,19.50
2018-05-17T19:16:17.417Z,22.13
2018-05-17T19:18:45.618Z,27.37
2018-05-17T19:21:13.799Z,21.33
2018-05-17T19:23:41.889Z,13.27
2018-05-17T19:26:09.866Z,18.63
2018-05-17T19:28:38.262Z,28.77
2018-05-17T19:31:06.448Z,11.33
2018-05-17T19:33:34.832Z,28.27
2018-05-17T19:36:03.028Z,15.37
2018-05-17T19:38:31.012Z,16.63
2018-05-17T19:40:59.096Z,24.50
2018-05-17T19:43:27.383Z,28.77
2018-05-17T19:45:55.048Z,13.70
2018-05-17T19:48:24.813Z,13.30
2018-05-17T19:50:53.418Z,17.30
2018-05-17T19:53:21.664Z,14.13
2018-05-17T19:55:50.053Z,26.03
2018-05-17T19:58:18.044Z,13.87
2018-05-17T20:00:46.324Z,16.83
2018-05-17T20:03:14.618Z,20.53
2018-05-17T20:05:42.906Z,14.87
2018-05-17T20:08:11.324Z,15.70
2018-05-17T20:10:39.279Z,26.17
2018-05-17T20:13:07.667Z,9.50
2018-05-17T20:15:35.255Z,15.17
2018-05-17T20:18:02.872Z,13.27
2018-05-17T20:20:30.892Z,17.20
2018-05-17T20:22:59.772Z,14.40
2018-05-17T20:25:27.565Z,4.00
2018-05-17T20:27:55.132Z,13.60
2018-05-17T20:30:22.662Z,30.90
2018-05-17T20:32:50.203Z,11.60
2018-05-17T20:35:17.702Z,18.80
2018-05-17T20:37:45.201Z,23.73
2018-05-17T20:40:12.736Z,14.93
2018-05-17T20:42:40.230Z,13.17
2018-05-17T20:45:07.916Z,10.30
2018-05-17T20:47:35.417Z,15.77
2018-05-17T20:50:02.921Z,14.30
2018-05-17T20:52:30.424Z,18.90
2018-05-17T20:54:57.927Z,14.47
2018-05-17T20:57:25.576Z,18.77
2018-05-17T20:59:53.143Z,11.10
2018-05-17T21:02:20.662Z,20.63
2018-05-17T21:04:48.185Z,28.40
2018-05-17T21:07:15.704Z,23.13
2018-05-17T21:09:43.631Z,18.53
2018-05-17T21:12:11.130Z,14.07
2018-05-17T21:14:38.646Z,15.53
2018-05-17T21:17:06.158Z,12.80
2018-05-17T21:19:33.652Z,17.20
2018-05-17T21:22:01.181Z,18.67
2018-05-17T21:24:28.669Z,10.77
2018-05-17T21:26:56.253Z,15.17
2018-05-17T21:29:23.777Z,8.23
2018-05-17T21:31:51.269Z,16.37
2018-05-17T21:34:18.866Z,8.17
2018-05-17T21:36:46.361Z,13.07
2018-05-17T21:39:13.849Z,14.50
2018-05-17T21:41:41.374Z,7.77
2018-05-17T21:44:08.865Z,28.93
2018-05-17T21:46:36.419Z,21.33
2018-05-17T21:49:03.941Z,17.07
2018-05-17T21:51:31.427Z,6.60
2018-05-17T21:53:58.941Z,9.90
2018-05-17T21:56:26.429Z,9.50
2018-05-17T21:58:54.164Z,14.40
2018-05-17T22:01:21.656Z,10.17
2018-05-17T22:03:49.153Z,11.23
2018-05-17T22:06:16.700Z,13.50
2018-05-17T22:08:44.188Z,8.50
2018-05-17T22:11:11.757Z,17.50
2018-05-17T22:13:39.244Z,8.53
2018-05-17T22:16:06.730Z,8.03
2018-05-17T22:18:34.243Z,11.80
2018-05-17T22:21:01.729Z,7.57
2018-05-17T22:23:29.445Z,19.27
2018-05-17T22:25:56.937Z,15.40
2018-05-17T22:28:24.557Z,11.40
2018-05-17T22:30:52.075Z,16.80
2018-05-17T22:33:19.569Z,10.73
2018-05-17T22:35:47.092Z,8.10
2018-05-17T22:38:14.616Z,20.30
2018-05-17T22:40:42.104Z,10.53
2018-05-17T22:43:09.613Z,28.50
2018-05-17T22:45:37.109Z,11.37
2018-05-17T22:48:04.777Z,15.87
2018-05-17T22:50:32.266Z,13.33
2018-05-17T22:53:00.109Z,13.03
2018-05-17T22:55:27.631Z,13.00
2018-05-17T22:58:06.960Z,9.03
2018-05-17T23:00:34.487Z,12.63
2018-05-17T23:03:01.973Z,16.93
2018-05-17T23:05:29.473Z,13.80
2018-05-17T23:07:57.011Z,15.17
2018-05-17T23:10:24.517Z,16.27
2018-05-17T23:12:52.169Z,9.20
2018-05-17T23:15:19.654Z,24.07
2018-05-17T23:17:47.161Z,14.83
2018-05-17T23:20:14.712Z,20.07
2018-05-17T23:22:42.197Z,16.47
2018-05-17T23:25:09.841Z,14.77
2018-05-17T23:27:37.348Z,10.90
2018-05-17T23:30:04.833Z,13.03
2018-05-17T23:32:32.363Z,10.23
2018-05-17T23:34:59.849Z,16.70
2018-05-17T23:37:27.385Z,13.37
2018-05-17T23:39:54.868Z,7.53
2018-05-17T23:42:22.371Z,15.93
2018-05-17T23:44:49.900Z,12.07
2018-05-17T23:47:17.401Z,13.90
2018-05-17T23:49:45.149Z,18.50
2018-05-17T23:52:12.637Z,19.33
2018-05-17T23:54:40.124Z,15.80
2018-05-17T23:57:07.648Z,14.27
2018-05-17T23:59:35.138Z,15.10
